sensor_id;sensor_type;location;lat;lon;timestamp;temperature;humidity
6556;DHT22;3311;48.32423000;14.29074500;2024-03-23T00:53:54;14.90;73.00
6556;DHT22;3311;48.32423000;14.29074500;2024-03-23T00:56:22;15.00;72.50
6556;DHT22;3311;48.32423000;14.29074500;2024-03-23T00:58:48;14.90;73.10
6556;DHT22;3311;48.32423000;14.29074500;2024-03-23T01:01:15;14.90;73.00
6556;DHT22;3311;48.32423000;14.29074500;2024-03-23T01:03:42;14.90;73.30
6556;DHT22;3311;48.32423000;14.29074500;2024-03-23T01:06:09;15.00;73.00
6556;DHT22;3311;48.32423000;14.29074500;2024-03-23T01:08:35;14.90;73.00
6556;DHT22;3311;48.32423000;14.29074500;2024-03-23T01:11:04;14.90;72.80
6556;DHT22;3311;48.32423000;14.29074500;2024-03-23T01:13:30;14.90;73.50
6556;DHT22;3311;48.32423000;14.29074500;2024-03-23T01:15:57;14.80;73.30
6556;DHT22;3311;48.32423000;14.29074500;2024-03-23T01:18:24;14.90;73.50
6556;DHT22;3311;48.32423000;14.29074500;2024-03-23T01:20:52;14.90;73.20
6556;DHT22;3311;48.32423000;14.29074500;2024-03-23T01:23:18;14.90;73.20
6556;DHT22;3311;48.32423000;14.29074500;2024-03-23T01:25:52;14.80;73.30
6556;DHT22;3311;48.32423000;14.29074500;2024-03-23T01:28:20;14.80;72.90
6556;DHT22;3311;48.32423000;14.29074500;2024-03-23T01:30:48;14.80;73.40
6556;DHT22;3311;48.32423000;14.29074500;2024-03-23T01:33:14;14.90;73.40
6556;DHT22;3311;48.32423000;14.29074500;2024-03-23T01:35:42;14.90;73.10
6556;DHT22;3311;48.32423000;14.29074500;2024-03-23T01:38:08;14.90;73.20
6556;DHT22;3311;48.32423000;14.29074500;2024-03-23T01:40:35;14.80;73.20
6556;DHT22;3311;48.32423000;14.29074500;2024-03-23T01:43:05;14.80;73.70
6556;DHT22;3311;48.32423000;14.29074500;2024-03-23T01:45:34;14.80;73.40
6556;DHT22;3311;48.32423000;14.29074500;2024-03-23T01:48:01;14.80;73.00
6556;DHT22;3311;48.32423000;14.29074500;2024-03-23T01:50:31;14.80;73.70
6556;DHT22;3311;48.32423000;14.29074500;2024-03-23T01:53:01;14.80;73.80
6556;DHT22;3311;48.32423000;14.29074500;2024-03-23T01:55:31;14.80;73.60
6556;DHT22;3311;48.32423000;14.29074500;2024-03-23T01:57:58;14.80;73.70
6556;DHT22;3311;48.32423000;14.29074500;2024-03-23T02:00:25;14.70;74.00
6556;DHT22;3311;48.32423000;14.29074500;2024-03-23T02:02:55;14.70;74.10
6556;DHT22;3311;48.32423000;14.29074500;2024-03-23T02:05:22;14.70;74.00
6556;DHT22;3311;48.32423000;14.29074500;2024-03-23T02:07:49;14.70;73.90
6556;DHT22;3311;48.32423000;14.29074500;2024-03-23T02:10:17;14.80;73.80
6556;DHT22;3311;48.32423000;14.29074500;2024-03-23T02:12:44;14.70;73.80
6556;DHT22;3311;48.32423000;14.29074500;2024-03-23T02:15:11;14.80;73.80
6556;DHT22;3311;48.32423000;14.29074500;2024-03-23T02:17:38;14.80;73.80
6556;DHT22;3311;48.32423000;14.29074500;2024-03-23T02:20:08;14.70;73.80
6556;DHT22;3311;48.32423000;14.29074500;2024-03-23T02:22:37;14.70;73.40
6556;DHT22;3311;48.32423000;14.29074500;2024-03-23T02:25:06;14.70;74.00
6556;DHT22;3311;48.32423000;14.29074500;2024-03-23T02:27:33;14.60;73.50
6556;DHT22;3311;48.32423000;14.29074500;2024-03-23T02:30:02;14.60;73.50
6556;DHT22;3311;48.32423000;14.29074500;2024-03-23T02:32:28;14.60;74.10
6556;DHT22;3311;48.32423000;14.29074500;2024-03-23T02:34:55;14.70;74.20
6556;DHT22;3311;48.32423000;14.29074500;2024-03-23T02:37:22;14.70;74.00
6556;DHT22;3311;48.32423000;14.29074500;2024-03-23T02:39:49;14.70;74.10
6556;DHT22;3311;48.32423000;14.29074500;2024-03-23T02:42:16;14.60;74.10
6556;DHT22;3311;48.32423000;14.29074500;2024-03-23T02:44:44;14.60;74.30
6556;DHT22;3311;48.32423000;14.29074500;2024-03-23T02:47:11;14.60;74.10
6556;DHT22;3311;48.32423000;14.29074500;2024-03-23T02:49:38;14.60;74.00
6556;DHT22;3311;48.32423000;14.29074500;2024-03-23T02:52:04;14.60;74.20
6556;DHT22;3311;48.32423000;14.29074500;2024-03-23T02:54:32;14.60;74.20
6556;DHT22;3311;48.32423000;14.29074500;2024-03-23T02:56:58;14.60;74.20
6556;DHT22;3311;48.32423000;14.29074500;2024-03-23T02:59:27;14.50;74.10
6556;DHT22;3311;48.32423000;14.29074500;2024-03-23T03:01:53;14.50;74.20
6556;DHT22;3311;48.32423000;14.29074500;2024-03-23T03:04:20;14.40;74.10
6556;DHT22;3311;48.32423000;14.29074500;2024-03-23T03:06:47;14.50;74.20
6556;DHT22;3311;48.32423000;14.29074500;2024-03-23T03:09:14;14.50;73.60
6556;DHT22;3311;48.32423000;14.29074500;2024-03-23T03:11:41;14.40;74.10
6556;DHT22;3311;48.32423000;14.29074500;2024-03-23T03:14:08;14.50;73.40
6556;DHT22;3311;48.32423000;14.29074500;2024-03-23T03:16:36;14.50;74.00
6556;DHT22;3311;48.32423000;14.29074500;2024-03-23T03:19:03;14.40;74.00
6556;DHT22;3311;48.32423000;14.29074500;2024-03-23T03:21:29;14.50;73.30
6556;DHT22;3311;48.32423000;14.29074500;2024-03-23T03:23:57;14.40;73.90
6556;DHT22;3311;48.32423000;14.29074500;2024-03-23T03:26:23;14.40;73.60
6556;DHT22;3311;48.32423000;14.29074500;2024-03-23T03:28:51;14.40;74.10
6556;DHT22;3311;48.32423000;14.29074500;2024-03-23T03:31:17;14.40;73.80
6556;DHT22;3311;48.32423000;14.29074500;2024-03-23T03:33:46;14.30;74.00
6556;DHT22;3311;48.32423000;14.29074500;2024-03-23T03:36:12;14.30;73.80
6556;DHT22;3311;48.32423000;14.29074500;2024-03-23T03:38:40;14.30;74.00
6556;DHT22;3311;48.32423000;14.29074500;2024-03-23T03:41:06;14.30;73.90
6556;DHT22;3311;48.32423000;14.29074500;2024-03-23T03:43:33;14.30;73.80
6556;DHT22;3311;48.32423000;14.29074500;2024-03-23T03:46:00;14.30;73.00
6556;DHT22;3311;48.32423000;14.29074500;2024-03-23T03:48:29;14.40;73.50
6556;DHT22;3311;48.32423000;14.29074500;2024-03-23T03:50:56;14.40;73.30
6556;DHT22;3311;48.32423000;14.29074500;2024-03-23T03:53:24;14.40;73.40
6556;DHT22;3311;48.32423000;14.29074500;2024-03-23T03:55:50;14.30;73.30
6556;DHT22;3311;48.32423000;14.29074500;2024-03-23T03:58:17;14.30;73.40
6556;DHT22;3311;48.32423000;14.29074500;2024-03-23T04:00:43;14.20;73.40
6556;DHT22;3311;48.32423000;14.29074500;2024-03-23T04:03:11;14.20;72.70
6556;DHT22;3311;48.32423000;14.29074500;2024-03-23T04:05:37;14.20;73.20
6556;DHT22;3311;48.32423000;14.29074500;2024-03-23T04:08:07;14.20;73.10
6556;DHT22;3311;48.32423000;14.29074500;2024-03-23T04:10:34;14.10;73.20
6556;DHT22;3311;48.32423000;14.29074500;2024-03-23T04:13:01;14.20;73.20
6556;DHT22;3311;48.32423000;14.29074500;2024-03-23T04:15:30;14.20;72.10
6556;DHT22;3311;48.32423000;14.29074500;2024-03-23T04:17:58;14.20;72.70
6556;DHT22;3311;48.32423000;14.29074500;2024-03-23T04:20:24;14.20;72.80
6556;DHT22;3311;48.32423000;14.29074500;2024-03-23T04:22:51;14.10;72.80
6556;DHT22;3311;48.32423000;14.29074500;2024-03-23T04:25:19;14.10;72.80
6556;DHT22;3311;48.32423000;14.29074500;2024-03-23T04:27:46;14.10;72.90
6556;DHT22;3311;48.32423000;14.29074500;2024-03-23T04:30:13;14.10;72.70
6556;DHT22;3311;48.32423000;14.29074500;2024-03-23T04:32:41;14.20;72.00
6556;DHT22;3311;48.32423000;14.29074500;2024-03-23T04:35:08;14.30;72.50
6556;DHT22;3311;48.32423000;14.29074500;2024-03-23T04:37:36;14.20;72.40
6556;DHT22;3311;48.32423000;14.29074500;2024-03-23T04:40:07;14.10;72.30
6556;DHT22;3311;48.32423000;14.29074500;2024-03-23T04:42:36;14.00;72.40
6556;DHT22;3311;48.32423000;14.29074500;2024-03-23T04:45:05;14.00;72.60
6556;DHT22;3311;48.32423000;14.29074500;2024-03-23T04:47:33;14.00;72.20
6556;DHT22;3311;48.32423000;14.29074500;2024-03-23T04:50:02;13.90;72.80
6556;DHT22;3311;48.32423000;14.29074500;2024-03-23T04:52:30;14.00;72.70
6556;DHT22;3311;48.32423000;14.29074500;2024-03-23T04:54:56;13.90;72.50
6556;DHT22;3311;48.32423000;14.29074500;2024-03-23T04:57:23;13.90;72.80
6556;DHT22;3311;48.32423000;14.29074500;2024-03-23T04:59:51;13.80;72.50
6556;DHT22;3311;48.32423000;14.29074500;2024-03-23T05:02:18;13.80;71.70
6556;DHT22;3311;48.32423000;14.29074500;2024-03-23T05:04:45;13.80;72.90
6556;DHT22;3311;48.32423000;14.29074500;2024-03-23T05:07:12;13.80;72.70
6556;DHT22;3311;48.32423000;14.29074500;2024-03-23T05:09:38;13.80;73.40
6556;DHT22;3311;48.32423000;14.29074500;2024-03-23T05:12:06;13.80;71.80
6556;DHT22;3311;48.32423000;14.29074500;2024-03-23T05:14:32;13.90;71.70
6556;DHT22;3311;48.32423000;14.29074500;2024-03-23T05:17:01;13.80;71.40
6556;DHT22;3311;48.32423000;14.29074500;2024-03-23T05:19:28;13.80;72.00
6556;DHT22;3311;48.32423000;14.29074500;2024-03-23T05:21:56;13.70;72.10
6556;DHT22;3311;48.32423000;14.29074500;2024-03-23T05:24:22;13.60;72.20
6556;DHT22;3311;48.32423000;14.29074500;2024-03-23T05:26:49;13.60;72.10
6556;DHT22;3311;48.32423000;14.29074500;2024-03-23T05:29:15;13.60;72.60
6556;DHT22;3311;48.32423000;14.29074500;2024-03-23T05:31:43;13.70;72.50
6556;DHT22;3311;48.32423000;14.29074500;2024-03-23T05:34:10;13.70;72.20
6556;DHT22;3311;48.32423000;14.29074500;2024-03-23T05:36:38;13.70;72.60
6556;DHT22;3311;48.32423000;14.29074500;2024-03-23T05:39:04;13.70;72.50
6556;DHT22;3311;48.32423000;14.29074500;2024-03-23T05:41:31;13.70;72.70
6556;DHT22;3311;48.32423000;14.29074500;2024-03-23T05:43:58;13.70;72.80
6556;DHT22;3311;48.32423000;14.29074500;2024-03-23T05:46:25;13.70;73.70
6556;DHT22;3311;48.32423000;14.29074500;2024-03-23T05:48:51;13.70;73.90
6556;DHT22;3311;48.32423000;14.29074500;2024-03-23T05:51:23;13.90;73.70
6556;DHT22;3311;48.32423000;14.29074500;2024-03-23T05:53:50;14.10;73.20
6556;DHT22;3311;48.32423000;14.29074500;2024-03-23T05:56:19;14.10;71.90
6556;DHT22;3311;48.32423000;14.29074500;2024-03-23T05:58:46;14.10;72.40
6556;DHT22;3311;48.32423000;14.29074500;2024-03-23T06:01:14;14.10;72.50
6556;DHT22;3311;48.32423000;14.29074500;2024-03-23T06:03:40;14.10;72.50
6556;DHT22;3311;48.32423000;14.29074500;2024-03-23T06:06:09;14.00;72.30
6556;DHT22;3311;48.32423000;14.29074500;2024-03-23T06:08:39;14.50;71.30
6556;DHT22;3311;48.32423000;14.29074500;2024-03-23T06:11:09;14.70;71.00
6556;DHT22;3311;48.32423000;14.29074500;2024-03-23T06:13:35;14.70;71.50
6556;DHT22;3311;48.32423000;14.29074500;2024-03-23T06:16:03;14.90;71.00
6556;DHT22;3311;48.32423000;14.29074500;2024-03-23T06:18:30;15.00;70.50
6556;DHT22;3311;48.32423000;14.29074500;2024-03-23T06:20:57;15.40;69.40
6556;DHT22;3311;48.32423000;14.29074500;2024-03-23T06:23:23;15.40;69.80
6556;DHT22;3311;48.32423000;14.29074500;2024-03-23T06:25:52;15.50;69.50
6556;DHT22;3311;48.32423000;14.29074500;2024-03-23T06:28:19;15.60;69.10
6556;DHT22;3311;48.32423000;14.29074500;2024-03-23T06:30:47;15.60;69.00
6556;DHT22;3311;48.32423000;14.29074500;2024-03-23T06:33:13;15.70;69.00
6556;DHT22;3311;48.32423000;14.29074500;2024-03-23T06:35:41;15.90;68.20
6556;DHT22;3311;48.32423000;14.29074500;2024-03-23T06:38:07;16.00;67.90
6556;DHT22;3311;48.32423000;14.29074500;2024-03-23T06:40:36;16.20;66.90
6556;DHT22;3311;48.32423000;14.29074500;2024-03-23T06:43:04;16.30;67.30
6556;DHT22;3311;48.32423000;14.29074500;2024-03-23T06:45:31;16.30;67.00
6556;DHT22;3311;48.32423000;14.29074500;2024-03-23T06:47:57;16.40;67.00
6556;DHT22;3311;48.32423000;14.29074500;2024-03-23T06:50:25;16.50;66.80
6556;DHT22;3311;48.32423000;14.29074500;2024-03-23T06:52:51;16.60;66.60
6556;DHT22;3311;48.32423000;14.29074500;2024-03-23T06:55:18;16.70;65.70
6556;DHT22;3311;48.32423000;14.29074500;2024-03-23T06:57:44;16.70;66.20
6556;DHT22;3311;48.32423000;14.29074500;2024-03-23T07:00:14;16.70;66.10
6556;DHT22;3311;48.32423000;14.29074500;2024-03-23T07:02:41;16.80;65.50
6556;DHT22;3311;48.32423000;14.29074500;2024-03-23T07:05:10;16.90;66.00
6556;DHT22;3311;48.32423000;14.29074500;2024-03-23T07:07:37;16.90;65.90
6556;DHT22;3311;48.32423000;14.29074500;2024-03-23T07:12:32;17.00;65.30
6556;DHT22;3311;48.32423000;14.29074500;2024-03-23T07:14:59;17.00;65.00
6556;DHT22;3311;48.32423000;14.29074500;2024-03-23T07:17:27;17.10;65.10
6556;DHT22;3311;48.32423000;14.29074500;2024-03-23T07:19:54;17.10;64.90
6556;DHT22;3311;48.32423000;14.29074500;2024-03-23T07:22:20;17.10;65.30
6556;DHT22;3311;48.32423000;14.29074500;2024-03-23T07:24:47;17.10;65.20
6556;DHT22;3311;48.32423000;14.29074500;2024-03-23T07:27:13;17.20;65.20
6556;DHT22;3311;48.32423000;14.29074500;2024-03-23T07:29:41;17.20;65.20
6556;DHT22;3311;48.32423000;14.29074500;2024-03-23T07:32:07;17.20;65.20
6556;DHT22;3311;48.32423000;14.29074500;2024-03-23T07:34:36;17.30;65.10
6556;DHT22;3311;48.32423000;14.29074500;2024-03-23T07:37:02;17.30;65.00
6556;DHT22;3311;48.32423000;14.29074500;2024-03-23T07:39:29;17.30;65.00
6556;DHT22;3311;48.32423000;14.29074500;2024-03-23T07:41:58;17.40;65.30
6556;DHT22;3311;48.32423000;14.29074500;2024-03-23T07:44:25;17.40;64.50
6556;DHT22;3311;48.32423000;14.29074500;2024-03-23T07:46:52;17.40;65.00
6556;DHT22;3311;48.32423000;14.29074500;2024-03-23T07:49:19;17.40;65.10
6556;DHT22;3311;48.32423000;14.29074500;2024-03-23T07:51:47;17.50;65.00
6556;DHT22;3311;48.32423000;14.29074500;2024-03-23T07:54:14;17.50;65.00
6556;DHT22;3311;48.32423000;14.29074500;2024-03-23T07:56:41;17.50;64.90
6556;DHT22;3311;48.32423000;14.29074500;2024-03-23T07:59:08;17.50;64.90
6556;DHT22;3311;48.32423000;14.29074500;2024-03-23T08:01:34;17.60;65.00
6556;DHT22;3311;48.32423000;14.29074500;2024-03-23T08:04:01;17.60;64.40
6556;DHT22;3311;48.32423000;14.29074500;2024-03-23T08:06:28;17.60;64.90
6556;DHT22;3311;48.32423000;14.29074500;2024-03-23T08:08:57;17.60;64.40
6556;DHT22;3311;48.32423000;14.29074500;2024-03-23T08:11:25;17.60;65.00
6556;DHT22;3311;48.32423000;14.29074500;2024-03-23T08:13:53;17.60;64.90
6556;DHT22;3311;48.32423000;14.29074500;2024-03-23T08:16:20;17.70;65.00
6556;DHT22;3311;48.32423000;14.29074500;2024-03-23T08:18:51;17.70;64.80
6556;DHT22;3311;48.32423000;14.29074500;2024-03-23T08:21:18;17.70;64.30
6556;DHT22;3311;48.32423000;14.29074500;2024-03-23T08:23:45;17.70;64.80
6556;DHT22;3311;48.32423000;14.29074500;2024-03-23T08:26:15;17.70;64.80
6556;DHT22;3311;48.32423000;14.29074500;2024-03-23T08:28:43;17.70;64.60
6556;DHT22;3311;48.32423000;14.29074500;2024-03-23T08:31:11;17.70;64.10
6556;DHT22;3311;48.32423000;14.29074500;2024-03-23T08:33:40;17.70;63.80
6556;DHT22;3311;48.32423000;14.29074500;2024-03-23T08:36:10;17.70;64.30
6556;DHT22;3311;48.32423000;14.29074500;2024-03-23T08:38:38;17.70;63.80
6556;DHT22;3311;48.32423000;14.29074500;2024-03-23T08:41:05;17.70;64.30
6556;DHT22;3311;48.32423000;14.29074500;2024-03-23T08:43:35;17.70;64.40
6556;DHT22;3311;48.32423000;14.29074500;2024-03-23T08:46:06;17.80;64.00
6556;DHT22;3311;48.32423000;14.29074500;2024-03-23T08:48:35;17.80;64.00
6556;DHT22;3311;48.32423000;14.29074500;2024-03-23T08:51:03;17.80;64.50
6556;DHT22;3311;48.32423000;14.29074500;2024-03-23T08:53:31;17.80;64.40
6556;DHT22;3311;48.32423000;14.29074500;2024-03-23T08:55:58;17.80;64.30
6556;DHT22;3311;48.32423000;14.29074500;2024-03-23T08:58:27;17.80;64.20
6556;DHT22;3311;48.32423000;14.29074500;2024-03-23T09:00:56;17.80;64.40
6556;DHT22;3311;48.32423000;14.29074500;2024-03-23T09:03:23;17.80;64.30
6556;DHT22;3311;48.32423000;14.29074500;2024-03-23T09:05:50;17.80;63.70
6556;DHT22;3311;48.32423000;14.29074500;2024-03-23T09:08:18;17.80;64.30
6556;DHT22;3311;48.32423000;14.29074500;2024-03-23T09:10:44;17.80;64.30
6556;DHT22;3311;48.32423000;14.29074500;2024-03-23T09:13:11;17.80;63.70
6556;DHT22;3311;48.32423000;14.29074500;2024-03-23T09:15:46;17.80;63.70
6556;DHT22;3311;48.32423000;14.29074500;2024-03-23T09:18:15;17.80;63.80
6556;DHT22;3311;48.32423000;14.29074500;2024-03-23T09:20:42;17.80;64.10
6556;DHT22;3311;48.32423000;14.29074500;2024-03-23T09:23:09;17.80;64.10
6556;DHT22;3311;48.32423000;14.29074500;2024-03-23T09:25:39;17.80;63.60
6556;DHT22;3311;48.32423000;14.29074500;2024-03-23T09:28:07;17.80;63.60
6556;DHT22;3311;48.32423000;14.29074500;2024-03-23T09:30:34;17.80;64.10
6556;DHT22;3311;48.32423000;14.29074500;2024-03-23T09:33:08;17.80;64.10
6556;DHT22;3311;48.32423000;14.29074500;2024-03-23T09:35:38;17.90;64.10
6556;DHT22;3311;48.32423000;14.29074500;2024-03-23T09:38:06;17.90;63.80
6556;DHT22;3311;48.32423000;14.29074500;2024-03-23T09:40:33;17.90;63.30
6556;DHT22;3311;48.32423000;14.29074500;2024-03-23T09:43:01;17.90;63.30
6556;DHT22;3311;48.32423000;14.29074500;2024-03-23T09:45:28;18.00;63.90
6556;DHT22;3311;48.32423000;14.29074500;2024-03-23T09:47:56;17.90;63.80
6556;DHT22;3311;48.32423000;14.29074500;2024-03-23T09:50:22;17.90;63.90
6556;DHT22;3311;48.32423000;14.29074500;2024-03-23T09:52:51;17.90;64.00
6556;DHT22;3311;48.32423000;14.29074500;2024-03-23T09:55:17;17.90;64.00
6556;DHT22;3311;48.32423000;14.29074500;2024-03-23T09:57:45;17.80;63.60
6556;DHT22;3311;48.32423000;14.29074500;2024-03-23T10:00:13;17.80;64.10
6556;DHT22;3311;48.32423000;14.29074500;2024-03-23T10:02:41;17.80;64.30
6556;DHT22;3311;48.32423000;14.29074500;2024-03-23T10:05:20;17.80;63.80
6556;DHT22;3311;48.32423000;14.29074500;2024-03-23T10:07:50;17.80;64.30
6556;DHT22;3311;48.32423000;14.29074500;2024-03-23T10:10:17;17.80;63.80
6556;DHT22;3311;48.32423000;14.29074500;2024-03-23T10:12:46;17.80;64.40
6556;DHT22;3311;48.32423000;14.29074500;2024-03-23T10:15:19;17.80;64.50
6556;DHT22;3311;48.32423000;14.29074500;2024-03-23T10:17:47;17.80;64.10
6556;DHT22;3311;48.32423000;14.29074500;2024-03-23T10:20:17;17.80;64.10
6556;DHT22;3311;48.32423000;14.29074500;2024-03-23T10:22:46;17.80;64.60
6556;DHT22;3311;48.32423000;14.29074500;2024-03-23T10:25:14;17.80;64.60
6556;DHT22;3311;48.32423000;14.29074500;2024-03-23T10:27:42;17.80;64.80
6556;DHT22;3311;48.32423000;14.29074500;2024-03-23T10:30:10;17.70;64.90
6556;DHT22;3311;48.32423000;14.29074500;2024-03-23T10:32:38;17.70;64.90
6556;DHT22;3311;48.32423000;14.29074500;2024-03-23T10:35:18;17.60;64.70
6556;DHT22;3311;48.32423000;14.29074500;2024-03-23T10:37:48;17.50;64.30
6556;DHT22;3311;48.32423000;14.29074500;2024-03-23T10:40:17;17.40;63.90
6556;DHT22;3311;48.32423000;14.29074500;2024-03-23T10:42:45;17.40;64.30
6556;DHT22;3311;48.32423000;14.29074500;2024-03-23T10:45:11;17.30;64.30
6556;DHT22;3311;48.32423000;14.29074500;2024-03-23T10:47:38;17.30;64.30
6556;DHT22;3311;48.32423000;14.29074500;2024-03-23T10:50:05;17.30;64.10
6556;DHT22;3311;48.32423000;14.29074500;2024-03-23T10:52:33;17.20;63.40
6556;DHT22;3311;48.32423000;14.29074500;2024-03-23T10:55:00;17.30;64.20
6556;DHT22;3311;48.32423000;14.29074500;2024-03-23T10:57:37;17.20;63.40
6556;DHT22;3311;48.32423000;14.29074500;2024-03-23T11:00:09;17.20;64.00
6556;DHT22;3311;48.32423000;14.29074500;2024-03-23T11:02:37;17.20;63.80
6556;DHT22;3311;48.32423000;14.29074500;2024-03-23T11:05:29;17.20;63.30
6556;DHT22;3311;48.32423000;14.29074500;2024-03-23T11:07:57;17.30;63.10
6556;DHT22;3311;48.32423000;14.29074500;2024-03-23T11:10:27;17.30;62.70
6556;DHT22;3311;48.32423000;14.29074500;2024-03-23T11:12:57;17.30;62.50
6556;DHT22;3311;48.32423000;14.29074500;2024-03-23T11:15:24;17.30;62.90
6556;DHT22;3311;48.32423000;14.29074500;2024-03-23T11:18:03;17.30;62.80
6556;DHT22;3311;48.32423000;14.29074500;2024-03-23T11:20:34;17.30;62.60
6556;DHT22;3311;48.32423000;14.29074500;2024-03-23T11:23:04;17.30;63.00
6556;DHT22;3311;48.32423000;14.29074500;2024-03-23T11:25:30;17.30;62.70
6556;DHT22;3311;48.32423000;14.29074500;2024-03-23T11:28:11;17.30;61.90
6556;DHT22;3311;48.32423000;14.29074500;2024-03-23T11:30:38;17.20;61.30
6556;DHT22;3311;48.32423000;14.29074500;2024-03-23T11:33:06;17.20;61.30
6556;DHT22;3311;48.32423000;14.29074500;2024-03-23T11:38:07;17.10;60.70
6556;DHT22;3311;48.32423000;14.29074500;2024-03-23T11:40:36;17.10;61.50
6556;DHT22;3311;48.32423000;14.29074500;2024-03-23T11:43:06;17.10;61.70
6556;DHT22;3311;48.32423000;14.29074500;2024-03-23T11:45:35;17.00;61.20
6556;DHT22;3311;48.32423000;14.29074500;2024-03-23T11:48:07;17.00;61.70
6556;DHT22;3311;48.32423000;14.29074500;2024-03-23T11:50:35;17.00;61.70
6556;DHT22;3311;48.32423000;14.29074500;2024-03-23T11:53:16;17.00;62.30
6556;DHT22;3311;48.32423000;14.29074500;2024-03-23T11:55:46;16.90;62.00
6556;DHT22;3311;48.32423000;14.29074500;2024-03-23T11:58:17;16.90;62.30
6556;DHT22;3311;48.32423000;14.29074500;2024-03-23T12:00:49;16.80;61.90
6556;DHT22;3311;48.32423000;14.29074500;2024-03-23T12:03:19;16.70;62.20
6556;DHT22;3311;48.32423000;14.29074500;2024-03-23T12:05:52;16.80;62.80
6556;DHT22;3311;48.32423000;14.29074500;2024-03-23T12:08:21;16.70;62.00
6556;DHT22;3311;48.32423000;14.29074500;2024-03-23T12:10:51;16.60;62.60
6556;DHT22;3311;48.32423000;14.29074500;2024-03-23T12:13:21;16.60;62.60
6556;DHT22;3311;48.32423000;14.29074500;2024-03-23T12:15:49;16.60;62.50
6556;DHT22;3311;48.32423000;14.29074500;2024-03-23T12:18:18;16.50;62.20
6556;DHT22;3311;48.32423000;14.29074500;2024-03-23T12:20:50;16.40;62.70
6556;DHT22;3311;48.32423000;14.29074500;2024-03-23T12:23:17;16.50;62.90
6556;DHT22;3311;48.32423000;14.29074500;2024-03-23T12:25:49;16.30;62.30
6556;DHT22;3311;48.32423000;14.29074500;2024-03-23T12:28:17;16.30;62.60
6556;DHT22;3311;48.32423000;14.29074500;2024-03-23T12:30:44;16.30;63.20
6556;DHT22;3311;48.32423000;14.29074500;2024-03-23T12:33:12;16.20;62.50
6556;DHT22;3311;48.32423000;14.29074500;2024-03-23T12:35:38;16.30;63.70
6556;DHT22;3311;48.32423000;14.29074500;2024-03-23T12:38:05;16.30;63.50
6556;DHT22;3311;48.32423000;14.29074500;2024-03-23T12:40:31;16.30;63.20
6556;DHT22;3311;48.32423000;14.29074500;2024-03-23T12:42:59;16.20;63.10
6556;DHT22;3311;48.32423000;14.29074500;2024-03-23T12:45:25;16.20;63.40
6556;DHT22;3311;48.32423000;14.29074500;2024-03-23T12:47:54;16.20;63.80
6556;DHT22;3311;48.32423000;14.29074500;2024-03-23T12:50:20;16.10;64.10
6556;DHT22;3311;48.32423000;14.29074500;2024-03-23T12:52:48;16.10;64.60
6556;DHT22;3311;48.32423000;14.29074500;2024-03-23T12:55:15;16.10;64.80
6556;DHT22;3311;48.32423000;14.29074500;2024-03-23T12:57:42;16.20;64.90
6556;DHT22;3311;48.32423000;14.29074500;2024-03-23T13:00:10;16.20;65.20
6556;DHT22;3311;48.32423000;14.29074500;2024-03-23T13:02:38;16.00;64.90
6556;DHT22;3311;48.32423000;14.29074500;2024-03-23T13:05:08;16.00;65.50
6556;DHT22;3311;48.32423000;14.29074500;2024-03-23T13:07:36;16.00;65.20
6556;DHT22;3311;48.32423000;14.29074500;2024-03-23T13:10:04;15.90;65.90
6556;DHT22;3311;48.32423000;14.29074500;2024-03-23T13:12:31;16.00;66.00
6556;DHT22;3311;48.32423000;14.29074500;2024-03-23T13:14:58;16.00;65.10
6556;DHT22;3311;48.32423000;14.29074500;2024-03-23T13:17:26;16.00;65.30
6556;DHT22;3311;48.32423000;14.29074500;2024-03-23T13:19:53;16.00;64.40
6556;DHT22;3311;48.32423000;14.29074500;2024-03-23T13:22:23;15.90;64.90
6556;DHT22;3311;48.32423000;14.29074500;2024-03-23T13:24:49;15.90;64.80
6556;DHT22;3311;48.32423000;14.29074500;2024-03-23T13:27:17;15.80;65.00
6556;DHT22;3311;48.32423000;14.29074500;2024-03-23T13:29:44;15.90;65.40
6556;DHT22;3311;48.32423000;14.29074500;2024-03-23T13:32:12;15.80;64.70
6556;DHT22;3311;48.32423000;14.29074500;2024-03-23T13:34:39;15.90;65.50
6556;DHT22;3311;48.32423000;14.29074500;2024-03-23T13:37:06;15.90;65.00
6556;DHT22;3311;48.32423000;14.29074500;2024-03-23T13:39:34;16.00;64.50
6556;DHT22;3311;48.32423000;14.29074500;2024-03-23T13:42:02;15.90;64.80
6556;DHT22;3311;48.32423000;14.29074500;2024-03-23T13:44:29;15.90;64.70
6556;DHT22;3311;48.32423000;14.29074500;2024-03-23T13:46:56;16.00;64.30
6556;DHT22;3311;48.32423000;14.29074500;2024-03-23T13:49:28;16.00;63.80
6556;DHT22;3311;48.32423000;14.29074500;2024-03-23T13:51:57;15.90;63.40
6556;DHT22;3311;48.32423000;14.29074500;2024-03-23T13:54:24;15.90;64.00
6556;DHT22;3311;48.32423000;14.29074500;2024-03-23T13:56:53;15.90;64.20
6556;DHT22;3311;48.32423000;14.29074500;2024-03-23T13:59:20;15.80;64.50
6556;DHT22;3311;48.32423000;14.29074500;2024-03-23T14:01:49;15.90;64.80
6556;DHT22;3311;48.32423000;14.29074500;2024-03-23T14:04:16;15.90;64.80
6556;DHT22;3311;48.32423000;14.29074500;2024-03-23T14:06:45;15.80;64.50
6556;DHT22;3311;48.32423000;14.29074500;2024-03-23T14:09:12;15.80;65.10
6556;DHT22;3311;48.32423000;14.29074500;2024-03-23T14:11:40;15.60;65.50
6556;DHT22;3311;48.32423000;14.29074500;2024-03-23T14:14:10;15.60;64.80
6556;DHT22;3311;48.32423000;14.29074500;2024-03-23T14:16:37;15.50;65.30
6556;DHT22;3311;48.32423000;14.29074500;2024-03-23T14:19:04;15.40;65.20
6556;DHT22;3311;48.32423000;14.29074500;2024-03-23T14:21:31;15.30;66.00
6556;DHT22;3311;48.32423000;14.29074500;2024-03-23T14:23:58;15.30;66.40
6556;DHT22;3311;48.32423000;14.29074500;2024-03-23T14:26:26;15.30;65.80
6556;DHT22;3311;48.32423000;14.29074500;2024-03-23T14:28:53;15.30;65.50
6556;DHT22;3311;48.32423000;14.29074500;2024-03-23T14:33:49;15.20;66.10
6556;DHT22;3311;48.32423000;14.29074500;2024-03-23T14:36:17;15.20;66.80
6556;DHT22;3311;48.32423000;14.29074500;2024-03-23T14:38:47;15.10;66.60